sensor_id;sensor_type;location;lat;lon;timestamp;pressure;altitude;pressure_sealevel;temperature;humidity
6506;BME280;3286;49.858;8.768;2023-08-01T00:01:06;97999.75;;;20.01;60.52
6506;BME280;3286;49.858;8.768;2023-08-01T00:03:33;98001.75;;;19.64;61.89
6506;BME280;3286;49.858;8.768;2023-08-01T00:05:59;97993.97;;;19.63;62.31
6506;BME280;3286;49.858;8.768;2023-08-01T00:08:26;97982.81;;;19.83;61.75
6506;BME280;3286;49.858;8.768;2023-08-01T00:10:54;97971.56;;;19.69;62.49
6506;BME280;3286;49.858;8.768;2023-08-01T00:13:20;97971.50;;;19.23;64.37
6506;BME280;3286;49.858;8.768;2023-08-01T00:15:47;97970.53;;;19.29;63.98
6506;BME280;3286;49.858;8.768;2023-08-01T00:18:14;97959.34;;;19.32;64.24
6506;BME280;3286;49.858;8.768;2023-08-01T00:20:40;97948.28;;;19.40;63.54
6506;BME280;3286;49.858;8.768;2023-08-01T00:23:07;97939.38;;;19.23;64.28
6506;BME280;3286;49.858;8.768;2023-08-01T00:25:33;97933.84;;;19.42;63.51
6506;BME280;3286;49.858;8.768;2023-08-01T00:28:02;97920.06;;;19.21;63.99
6506;BME280;3286;49.858;8.768;2023-08-01T00:30:29;97925.81;;;18.89;65.13
6506;BME280;3286;49.858;8.768;2023-08-01T00:32:55;97918.75;;;18.71;65.82
6506;BME280;3286;49.858;8.768;2023-08-01T00:35:22;97913.28;;;18.77;65.48
6506;BME280;3286;49.858;8.768;2023-08-01T00:37:48;97919.63;;;19.12;64.60
6506;BME280;3286;49.858;8.768;2023-08-01T00:40:15;97919.97;;;19.45;63.40
6506;BME280;3286;49.858;8.768;2023-08-01T00:42:42;97908.09;;;19.11;65.00
6506;BME280;3286;49.858;8.768;2023-08-01T00:45:11;97889.56;;;19.22;64.55
6506;BME280;3286;49.858;8.768;2023-08-01T00:47:38;97888.47;;;19.35;64.36
6506;BME280;3286;49.858;8.768;2023-08-01T00:50:05;97878.75;;;19.46;63.51
6506;BME280;3286;49.858;8.768;2023-08-01T00:52:32;97875.41;;;19.38;64.43
6506;BME280;3286;49.858;8.768;2023-08-01T00:54:59;97875.25;;;19.16;64.77
6506;BME280;3286;49.858;8.768;2023-08-01T00:57:26;97869.69;;;19.18;64.69
6506;BME280;3286;49.858;8.768;2023-08-01T00:59:53;97878.31;;;19.37;64.87
6506;BME280;3286;49.858;8.768;2023-08-01T01:02:21;97863.94;;;19.26;64.54
6506;BME280;3286;49.858;8.768;2023-08-01T01:04:47;97861.16;;;19.67;63.69
6506;BME280;3286;49.858;8.768;2023-08-01T01:07:16;97855.94;;;19.43;64.02
6506;BME280;3286;49.858;8.768;2023-08-01T01:09:43;97863.00;;;19.49;63.59
6506;BME280;3286;49.858;8.768;2023-08-01T01:12:09;97869.22;;;19.84;63.08
6506;BME280;3286;49.858;8.768;2023-08-01T01:14:36;97884.13;;;19.63;63.73
6506;BME280;3286;49.858;8.768;2023-08-01T01:17:03;97881.53;;;18.81;66.58
6506;BME280;3286;49.858;8.768;2023-08-01T01:19:31;97883.66;;;19.08;65.69
6506;BME280;3286;49.858;8.768;2023-08-01T01:21:59;97867.63;;;19.08;65.39
6506;BME280;3286;49.858;8.768;2023-08-01T01:24:26;97849.84;;;18.90;66.53
6506;BME280;3286;49.858;8.768;2023-08-01T01:26:54;97834.72;;;18.95;65.93
6506;BME280;3286;49.858;8.768;2023-08-01T01:29:26;97829.13;;;19.26;64.96
6506;BME280;3286;49.858;8.768;2023-08-01T01:31:53;97818.56;;;18.90;66.05
6506;BME280;3286;49.858;8.768;2023-08-01T01:34:20;97824.78;;;18.79;66.40
6506;BME280;3286;49.858;8.768;2023-08-01T01:36:47;97829.34;;;18.95;65.63
6506;BME280;3286;49.858;8.768;2023-08-01T01:39:15;97816.41;;;18.75;66.33
6506;BME280;3286;49.858;8.768;2023-08-01T01:41:43;97823.19;;;18.54;67.47
6506;BME280;3286;49.858;8.768;2023-08-01T01:44:09;97817.59;;;18.56;67.25
6506;BME280;3286;49.858;8.768;2023-08-01T01:46:36;97807.84;;;18.61;67.54
6506;BME280;3286;49.858;8.768;2023-08-01T01:49:03;97818.78;;;18.89;66.71
6506;BME280;3286;49.858;8.768;2023-08-01T01:51:30;97813.25;;;18.78;67.27
6506;BME280;3286;49.858;8.768;2023-08-01T01:53:56;97819.84;;;18.88;66.72
6506;BME280;3286;49.858;8.768;2023-08-01T01:56:24;97804.03;;;18.86;67.11
6506;BME280;3286;49.858;8.768;2023-08-01T01:58:51;97797.84;;;18.98;66.30
6506;BME280;3286;49.858;8.768;2023-08-01T02:01:18;97770.50;;;18.95;66.64
6506;BME280;3286;49.858;8.768;2023-08-01T02:03:44;97760.28;;;18.51;68.53
6506;BME280;3286;49.858;8.768;2023-08-01T02:06:11;97736.94;;;18.59;68.40
6506;BME280;3286;49.858;8.768;2023-08-01T02:08:37;97758.72;;;19.08;66.54
6506;BME280;3286;49.858;8.768;2023-08-01T02:11:04;97738.81;;;18.75;67.79
6506;BME280;3286;49.858;8.768;2023-08-01T02:13:32;97727.28;;;18.58;67.91
6506;BME280;3286;49.858;8.768;2023-08-01T02:15:59;97727.06;;;18.76;67.83
6506;BME280;3286;49.858;8.768;2023-08-01T02:18:25;97708.59;;;18.92;67.25
6506;BME280;3286;49.858;8.768;2023-08-01T02:20:52;97710.03;;;19.11;66.14
6506;BME280;3286;49.858;8.768;2023-08-01T02:23:19;97720.00;;;19.16;66.57
6506;BME280;3286;49.858;8.768;2023-08-01T02:25:45;97722.38;;;19.13;66.40
6506;BME280;3286;49.858;8.768;2023-08-01T02:28:12;97732.84;;;18.85;67.11
6506;BME280;3286;49.858;8.768;2023-08-01T02:30:40;97732.50;;;18.81;67.16
6506;BME280;3286;49.858;8.768;2023-08-01T02:33:06;97722.78;;;19.04;66.73
6506;BME280;3286;49.858;8.768;2023-08-01T02:35:33;97722.44;;;19.18;66.62
6506;BME280;3286;49.858;8.768;2023-08-01T02:38:00;97715.22;;;18.72;67.69
6506;BME280;3286;49.858;8.768;2023-08-01T02:40:28;97723.75;;;18.98;66.60
6506;BME280;3286;49.858;8.768;2023-08-01T02:42:55;97720.59;;;18.72;67.58
6506;BME280;3286;49.858;8.768;2023-08-01T02:45:21;97725.88;;;18.84;67.41
6506;BME280;3286;49.858;8.768;2023-08-01T02:47:49;97717.91;;;19.01;66.86
6506;BME280;3286;49.858;8.768;2023-08-01T02:50:16;97711.53;;;18.90;67.03
6506;BME280;3286;49.858;8.768;2023-08-01T02:52:43;97692.16;;;18.83;67.51
6506;BME280;3286;49.858;8.768;2023-08-01T02:55:09;97672.13;;;18.86;67.34
6506;BME280;3286;49.858;8.768;2023-08-01T02:57:36;97673.66;;;18.81;67.64
6506;BME280;3286;49.858;8.768;2023-08-01T03:00:03;97664.84;;;18.81;67.17
6506;BME280;3286;49.858;8.768;2023-08-01T03:02:31;97674.72;;;18.80;67.63
6506;BME280;3286;49.858;8.768;2023-08-01T03:04:59;97671.31;;;18.85;67.82
6506;BME280;3286;49.858;8.768;2023-08-01T03:07:26;97658.22;;;19.01;67.09
6506;BME280;3286;49.858;8.768;2023-08-01T03:09:52;97673.56;;;19.05;67.07
6506;BME280;3286;49.858;8.768;2023-08-01T03:12:20;97665.59;;;19.28;66.11
6506;BME280;3286;49.858;8.768;2023-08-01T03:14:47;97679.84;;;19.33;66.14
6506;BME280;3286;49.858;8.768;2023-08-01T03:17:13;97681.59;;;19.05;67.33
6506;BME280;3286;49.858;8.768;2023-08-01T03:19:40;97682.91;;;18.91;67.84
6506;BME280;3286;49.858;8.768;2023-08-01T03:22:09;97682.59;;;18.87;67.64
6506;BME280;3286;49.858;8.768;2023-08-01T03:24:36;97676.84;;;18.95;67.35
6506;BME280;3286;49.858;8.768;2023-08-01T03:27:03;97684.28;;;18.93;67.76
6506;BME280;3286;49.858;8.768;2023-08-01T03:29:30;97694.97;;;18.76;68.09
6506;BME280;3286;49.858;8.768;2023-08-01T03:31:56;97686.13;;;18.59;68.97
6506;BME280;3286;49.858;8.768;2023-08-01T03:34:23;97691.50;;;18.93;67.87
6506;BME280;3286;49.858;8.768;2023-08-01T03:36:52;97703.34;;;18.51;69.10
6506;BME280;3286;49.858;8.768;2023-08-01T03:39:20;97690.53;;;18.82;68.22
6506;BME280;3286;49.858;8.768;2023-08-01T03:41:46;97699.94;;;18.56;68.77
6506;BME280;3286;49.858;8.768;2023-08-01T03:44:13;97699.91;;;18.38;69.97
6506;BME280;3286;49.858;8.768;2023-08-01T03:46:41;97698.69;;;18.75;68.21
6506;BME280;3286;49.858;8.768;2023-08-01T03:49:07;97708.34;;;18.47;69.28
6506;BME280;3286;49.858;8.768;2023-08-01T03:51:34;97703.81;;;18.19;70.15
6506;BME280;3286;49.858;8.768;2023-08-01T03:54:01;97695.00;;;18.18;70.28
6506;BME280;3286;49.858;8.768;2023-08-01T03:56:29;97698.00;;;18.10;70.67
6506;BME280;3286;49.858;8.768;2023-08-01T03:58:56;97672.94;;;18.40;69.69
6506;BME280;3286;49.858;8.768;2023-08-01T04:01:22;97661.19;;;18.41;69.98
6506;BME280;3286;49.858;8.768;2023-08-01T04:03:49;97679.63;;;18.72;68.47
6506;BME280;3286;49.858;8.768;2023-08-01T04:06:15;97671.34;;;18.56;68.92
6506;BME280;3286;49.858;8.768;2023-08-01T04:08:42;97672.06;;;18.22;70.27
6506;BME280;3286;49.858;8.768;2023-08-01T04:11:09;97660.56;;;18.51;68.96
6506;BME280;3286;49.858;8.768;2023-08-01T04:13:38;97655.97;;;18.63;68.77
6506;BME280;3286;49.858;8.768;2023-08-01T04:16:04;97655.56;;;18.72;68.22
6506;BME280;3286;49.858;8.768;2023-08-01T04:18:31;97627.38;;;19.15;66.82
6506;BME280;3286;49.858;8.768;2023-08-01T04:20:57;97644.50;;;19.14;66.46
6506;BME280;3286;49.858;8.768;2023-08-01T04:23:24;97637.72;;;19.06;66.67
6506;BME280;3286;49.858;8.768;2023-08-01T04:25:51;97648.22;;;18.33;69.14
6506;BME280;3286;49.858;8.768;2023-08-01T04:28:18;97650.44;;;18.53;68.51
6506;BME280;3286;49.858;8.768;2023-08-01T04:30:49;97659.94;;;18.32;69.17
6506;BME280;3286;49.858;8.768;2023-08-01T04:33:16;97656.41;;;18.43;69.26
6506;BME280;3286;49.858;8.768;2023-08-01T04:35:43;97663.03;;;18.70;67.74
6506;BME280;3286;49.858;8.768;2023-08-01T04:38:10;97651.47;;;18.81;68.10
6506;BME280;3286;49.858;8.768;2023-08-01T04:40:36;97660.84;;;18.83;67.91
6506;BME280;3286;49.858;8.768;2023-08-01T04:43:03;97664.69;;;19.05;67.07
6506;BME280;3286;49.858;8.768;2023-08-01T04:45:30;97659.69;;;18.62;68.24
6506;BME280;3286;49.858;8.768;2023-08-01T04:47:58;97667.06;;;18.55;68.71
6506;BME280;3286;49.858;8.768;2023-08-01T04:50:24;97657.28;;;18.95;67.10
6506;BME280;3286;49.858;8.768;2023-08-01T04:52:51;97668.56;;;18.97;66.98
6506;BME280;3286;49.858;8.768;2023-08-01T04:55:17;97658.84;;;18.45;69.41
6506;BME280;3286;49.858;8.768;2023-08-01T04:57:44;97650.88;;;18.33;69.77
6506;BME280;3286;49.858;8.768;2023-08-01T05:00:11;97658.56;;;18.58;68.81
6506;BME280;3286;49.858;8.768;2023-08-01T05:02:38;97651.97;;;18.49;68.93
6506;BME280;3286;49.858;8.768;2023-08-01T05:05:07;97666.56;;;18.29;70.17
6506;BME280;3286;49.858;8.768;2023-08-01T05:07:33;97680.56;;;18.48;69.88
6506;BME280;3286;49.858;8.768;2023-08-01T05:10:00;97692.69;;;17.98;71.62
6506;BME280;3286;49.858;8.768;2023-08-01T05:12:27;97618.56;;;17.93;72.06
6506;BME280;3286;49.858;8.768;2023-08-01T05:14:53;97606.84;;;17.94;71.05
6506;BME280;3286;49.858;8.768;2023-08-01T05:17:20;97610.56;;;17.93;71.65
6506;BME280;3286;49.858;8.768;2023-08-01T05:19:47;97623.34;;;17.91;71.00
6506;BME280;3286;49.858;8.768;2023-08-01T05:22:15;97591.13;;;17.69;70.98
6506;BME280;3286;49.858;8.768;2023-08-01T05:24:41;97586.28;;;17.54;70.04
6506;BME280;3286;49.858;8.768;2023-08-01T05:27:08;97578.06;;;17.32;70.14
6506;BME280;3286;49.858;8.768;2023-08-01T05:29:34;97585.50;;;17.83;68.75
6506;BME280;3286;49.858;8.768;2023-08-01T05:32:02;97593.25;;;17.96;68.27
6506;BME280;3286;49.858;8.768;2023-08-01T05:34:28;97593.72;;;17.93;68.53
6506;BME280;3286;49.858;8.768;2023-08-01T05:36:55;97593.38;;;17.89;68.44
6506;BME280;3286;49.858;8.768;2023-08-01T05:39:23;97598.22;;;18.33;67.48
6506;BME280;3286;49.858;8.768;2023-08-01T05:41:50;97617.63;;;18.41;67.07
6506;BME280;3286;49.858;8.768;2023-08-01T05:44:16;97625.72;;;18.17;67.41
6506;BME280;3286;49.858;8.768;2023-08-01T05:46:43;97627.53;;;18.28;66.80
6506;BME280;3286;49.858;8.768;2023-08-01T05:49:09;97626.22;;;17.61;68.56
6506;BME280;3286;49.858;8.768;2023-08-01T05:51:36;97619.47;;;17.58;68.46
6506;BME280;3286;49.858;8.768;2023-08-01T05:54:03;97632.50;;;17.55;68.31
6506;BME280;3286;49.858;8.768;2023-08-01T05:56:31;97632.72;;;17.53;68.45
6506;BME280;3286;49.858;8.768;2023-08-01T05:58:58;97639.38;;;17.91;67.63
6506;BME280;3286;49.858;8.768;2023-08-01T06:01:25;97646.25;;;17.75;68.38
6506;BME280;3286;49.858;8.768;2023-08-01T06:03:51;97637.66;;;17.73;68.13
6506;BME280;3286;49.858;8.768;2023-08-01T06:06:18;97635.84;;;18.15;66.93
6506;BME280;3286;49.858;8.768;2023-08-01T06:08:44;97618.97;;;18.14;67.17
6506;BME280;3286;49.858;8.768;2023-08-01T06:11:11;97611.75;;;17.74;68.48
6506;BME280;3286;49.858;8.768;2023-08-01T06:13:39;97607.31;;;17.91;68.63
6506;BME280;3286;49.858;8.768;2023-08-01T06:16:06;97615.06;;;17.93;68.10
6506;BME280;3286;49.858;8.768;2023-08-01T06:18:32;97608.69;;;17.94;67.89
6506;BME280;3286;49.858;8.768;2023-08-01T06:20:59;97611.84;;;18.32;67.09
6506;BME280;3286;49.858;8.768;2023-08-01T06:23:27;97632.56;;;18.24;67.07
6506;BME280;3286;49.858;8.768;2023-08-01T06:25:53;97639.66;;;17.78;68.90
6506;BME280;3286;49.858;8.768;2023-08-01T06:28:20;97634.91;;;18.09;67.78
6506;BME280;3286;49.858;8.768;2023-08-01T06:30:48;97633.47;;;17.77;68.87
6506;BME280;3286;49.858;8.768;2023-08-01T06:33:15;97630.41;;;17.45;69.50
6506;BME280;3286;49.858;8.768;2023-08-01T06:35:41;97638.38;;;18.21;67.61
6506;BME280;3286;49.858;8.768;2023-08-01T06:38:08;97651.53;;;18.11;67.67
6506;BME280;3286;49.858;8.768;2023-08-01T06:40:34;97651.94;;;17.79;68.33
6506;BME280;3286;49.858;8.768;2023-08-01T06:43:01;97652.38;;;17.88;68.63
6506;BME280;3286;49.858;8.768;2023-08-01T06:45:28;97645.44;;;18.28;66.59
6506;BME280;3286;49.858;8.768;2023-08-01T06:47:56;97646.09;;;18.35;66.94
6506;BME280;3286;49.858;8.768;2023-08-01T06:50:22;97651.22;;;18.36;66.57
6506;BME280;3286;49.858;8.768;2023-08-01T06:52:49;97649.84;;;18.34;66.33
6506;BME280;3286;49.858;8.768;2023-08-01T06:55:16;97646.59;;;18.32;66.70
6506;BME280;3286;49.858;8.768;2023-08-01T06:57:42;97650.25;;;18.14;67.33
6506;BME280;3286;49.858;8.768;2023-08-01T07:00:10;97652.47;;;18.46;66.04
6506;BME280;3286;49.858;8.768;2023-08-01T07:02:37;97662.13;;;18.06;67.40
6506;BME280;3286;49.858;8.768;2023-08-01T07:05:05;97671.59;;;18.72;65.50
6506;BME280;3286;49.858;8.768;2023-08-01T07:07:32;97672.31;;;19.13;64.41
6506;BME280;3286;49.858;8.768;2023-08-01T07:09:59;97676.69;;;18.27;66.92
6506;BME280;3286;49.858;8.768;2023-08-01T07:12:25;97678.41;;;19.08;64.15
6506;BME280;3286;49.858;8.768;2023-08-01T07:14:52;97676.63;;;19.14;63.84
6506;BME280;3286;49.858;8.768;2023-08-01T07:17:19;97664.63;;;19.34;63.55
6506;BME280;3286;49.858;8.768;2023-08-01T07:19:45;97668.91;;;19.01;64.54
6506;BME280;3286;49.858;8.768;2023-08-01T07:22:13;97678.31;;;17.75;69.64
6506;BME280;3286;49.858;8.768;2023-08-01T07:24:40;97683.56;;;18.23;67.43
6506;BME280;3286;49.858;8.768;2023-08-01T07:27:06;97696.75;;;17.89;69.77
6506;BME280;3286;49.858;8.768;2023-08-01T07:29:33;97698.25;;;17.85;70.30
6506;BME280;3286;49.858;8.768;2023-08-01T07:32:00;97719.31;;;17.57;71.72
6506;BME280;3286;49.858;8.768;2023-08-01T07:34:26;97732.72;;;18.22;70.58
6506;BME280;3286;49.858;8.768;2023-08-01T07:36:53;97731.00;;;18.16;68.61
6506;BME280;3286;49.858;8.768;2023-08-01T07:39:21;97734.25;;;18.06;69.72
6506;BME280;3286;49.858;8.768;2023-08-01T07:41:48;97727.75;;;17.90;70.71
6506;BME280;3286;49.858;8.768;2023-08-01T07:44:14;97725.44;;;17.34;72.73
6506;BME280;3286;49.858;8.768;2023-08-01T07:46:41;97737.06;;;16.97;73.34
6506;BME280;3286;49.858;8.768;2023-08-01T07:49:07;97741.09;;;17.90;70.82
6506;BME280;3286;49.858;8.768;2023-08-01T07:51:34;97731.72;;;17.99;69.76
6506;BME280;3286;49.858;8.768;2023-08-01T07:54:01;97733.03;;;18.66;67.48
6506;BME280;3286;49.858;8.768;2023-08-01T07:56:29;97736.81;;;18.82;67.18
6506;BME280;3286;49.858;8.768;2023-08-01T07:58:56;97747.81;;;17.21;72.28
6506;BME280;3286;49.858;8.768;2023-08-01T08:01:22;97743.78;;;18.54;68.84
6506;BME280;3286;49.858;8.768;2023-08-01T08:03:49;97744.13;;;18.58;67.64
6506;BME280;3286;49.858;8.768;2023-08-01T08:06:16;97739.56;;;18.88;66.99
6506;BME280;3286;49.858;8.768;2023-08-01T08:08:42;97742.19;;;19.46;64.54
6506;BME280;3286;49.858;8.768;2023-08-01T08:11:09;97741.69;;;19.32;64.66
6506;BME280;3286;49.858;8.768;2023-08-01T08:13:37;97738.09;;;19.43;64.14
6506;BME280;3286;49.858;8.768;2023-08-01T08:16:05;97741.84;;;18.79;66.52
6506;BME280;3286;49.858;8.768;2023-08-01T08:18:32;97743.00;;;18.83;67.64
6506;BME280;3286;49.858;8.768;2023-08-01T08:20:59;97741.09;;;19.81;64.59
6506;BME280;3286;49.858;8.768;2023-08-01T08:23:25;97739.94;;;19.94;64.61
6506;BME280;3286;49.858;8.768;2023-08-01T08:25:53;97742.31;;;19.90;65.71
6506;BME280;3286;49.858;8.768;2023-08-01T08:28:27;97742.22;;;20.24;64.90
6506;BME280;3286;49.858;8.768;2023-08-01T08:30:56;97745.63;;;20.42;64.64
6506;BME280;3286;49.858;8.768;2023-08-01T08:33:23;97759.63;;;20.94;63.43
6506;BME280;3286;49.858;8.768;2023-08-01T08:35:49;97746.41;;;21.85;60.96
6506;BME280;3286;49.858;8.768;2023-08-01T08:38:17;97744.53;;;21.48;59.99
6506;BME280;3286;49.858;8.768;2023-08-01T08:40:52;97747.97;;;21.10;61.00
6506;BME280;3286;49.858;8.768;2023-08-01T08:43:23;97741.00;;;21.09;59.99
6506;BME280;3286;49.858;8.768;2023-08-01T08:45:50;97735.09;;;21.83;58.44
6506;BME280;3286;49.858;8.768;2023-08-01T08:48:19;97742.44;;;20.95;61.38
6506;BME280;3286;49.858;8.768;2023-08-01T08:50:46;97736.91;;;21.72;60.16
6506;BME280;3286;49.858;8.768;2023-08-01T08:53:13;97740.72;;;21.11;60.40
6506;BME280;3286;49.858;8.768;2023-08-01T08:55:41;97746.25;;;22.07;59.97
6506;BME280;3286;49.858;8.768;2023-08-01T08:58:08;97740.72;;;21.11;59.62
6506;BME280;3286;49.858;8.768;2023-08-01T09:00:35;97751.97;;;19.91;64.27
6506;BME280;3286;49.858;8.768;2023-08-01T09:03:03;97751.28;;;20.68;61.12
6506;BME280;3286;49.858;8.768;2023-08-01T09:05:34;97751.50;;;21.87;58.86
6506;BME280;3286;49.858;8.768;2023-08-01T09:08:04;97760.44;;;21.60;58.09
6506;BME280;3286;49.858;8.768;2023-08-01T09:10:33;97756.75;;;21.33;58.62
6506;BME280;3286;49.858;8.768;2023-08-01T09:13:00;97768.00;;;20.75;60.89
6506;BME280;3286;49.858;8.768;2023-08-01T09:15:27;97767.25;;;20.58;61.40
6506;BME280;3286;49.858;8.768;2023-08-01T09:17:55;97772.16;;;20.83;60.32
6506;BME280;3286;49.858;8.768;2023-08-01T09:20:26;97771.19;;;21.27;58.74
6506;BME280;3286;49.858;8.768;2023-08-01T09:22:54;97750.72;;;21.53;57.83
6506;BME280;3286;49.858;8.768;2023-08-01T09:25:31;97761.19;;;21.88;57.49
6506;BME280;3286;49.858;8.768;2023-08-01T09:27:58;97762.47;;;21.80;56.66
6506;BME280;3286;49.858;8.768;2023-08-01T09:30:26;97775.06;;;21.09;58.67
6506;BME280;3286;49.858;8.768;2023-08-01T09:32:53;97772.38;;;22.22;55.95
6506;BME280;3286;49.858;8.768;2023-08-01T09:35:20;97773.22;;;22.28;55.58
6506;BME280;3286;49.858;8.768;2023-08-01T09:37:47;97774.16;;;21.63;55.81
6506;BME280;3286;49.858;8.768;2023-08-01T09:40:16;97768.78;;;22.01;55.83
6506;BME280;3286;49.858;8.768;2023-08-01T09:42:44;97756.78;;;22.88;53.43
6506;BME280;3286;49.858;8.768;2023-08-01T09:45:15;97770.34;;;22.45;54.32
6506;BME280;3286;49.858;8.768;2023-08-01T09:47:42;97765.84;;;22.51;54.56
6506;BME280;3286;49.858;8.768;2023-08-01T09:50:10;97780.22;;;22.29;56.00
6506;BME280;3286;49.858;8.768;2023-08-01T09:52:38;97778.09;;;23.15;54.96
6506;BME280;3286;49.858;8.768;2023-08-01T09:55:05;97780.72;;;22.21;56.08
6506;BME280;3286;49.858;8.768;2023-08-01T09:57:37;97772.81;;;21.98;53.40
6506;BME280;3286;49.858;8.768;2023-08-01T10:00:05;97771.53;;;22.70;53.44
6506;BME280;3286;49.858;8.768;2023-08-01T10:02:33;97764.22;;;22.55;53.17
6506;BME280;3286;49.858;8.768;2023-08-01T10:05:00;97776.59;;;22.51;52.15
6506;BME280;3286;49.858;8.768;2023-08-01T10:07:29;97778.88;;;23.06;51.87
6506;BME280;3286;49.858;8.768;2023-08-01T10:09:58;97778.81;;;22.75;50.16
6506;BME280;3286;49.858;8.768;2023-08-01T10:12:26;97781.03;;;22.98;50.29
6506;BME280;3286;49.858;8.768;2023-08-01T10:14:54;97779.91;;;24.24;47.75
6506;BME280;3286;49.858;8.768;2023-08-01T10:17:24;97773.22;;;23.95;49.45
6506;BME280;3286;49.858;8.768;2023-08-01T10:19:53;97784.31;;;23.63;51.67
6506;BME280;3286;49.858;8.768;2023-08-01T10:22:21;97783.06;;;22.55;49.56
6506;BME280;3286;49.858;8.768;2023-08-01T10:24:48;97785.88;;;23.17;49.06
6506;BME280;3286;49.858;8.768;2023-08-01T10:27:20;97783.50;;;23.31;49.11
6506;BME280;3286;49.858;8.768;2023-08-01T10:29:57;97790.78;;;23.36;47.89
6506;BME280;3286;49.858;8.768;2023-08-01T10:32:29;97786.66;;;22.92;48.58
6506;BME280;3286;49.858;8.768;2023-08-01T10:34:57;97778.34;;;23.92;46.91
6506;BME280;3286;49.858;8.768;2023-08-01T10:37:24;97780.75;;;24.09;46.46
6506;BME280;3286;49.858;8.768;2023-08-01T10:39:56;97783.72;;;23.14;47.13
6506;BME280;3286;49.858;8.768;2023-08-01T10:42:23;97781.81;;;22.89;47.63
6506;BME280;3286;49.858;8.768;2023-08-01T10:44:50;97786.13;;;22.21;47.63
6506;BME280;3286;49.858;8.768;2023-08-01T10:47:26;97779.75;;;23.32;46.98
6506;BME280;3286;49.858;8.768;2023-08-01T10:49:53;97786.97;;;23.88;44.71
6506;BME280;3286;49.858;8.768;2023-08-01T10:52:21;97792.13;;;23.64;44.15
6506;BME280;3286;49.858;8.768;2023-08-01T10:54:56;97796.97;;;23.72;45.93
6506;BME280;3286;49.858;8.768;2023-08-01T10:57:23;97791.06;;;23.50;45.42
6506;BME280;3286;49.858;8.768;2023-08-01T10:59:50;97789.84;;;24.39;43.54
6506;BME280;3286;49.858;8.768;2023-08-01T11:02:23;97800.22;;;23.64;43.06
6506;BME280;3286;49.858;8.768;2023-08-01T11:04:59;97803.13;;;24.25;41.85
6506;BME280;3286;49.858;8.768;2023-08-01T11:07:26;97801.41;;;25.10;41.32
6506;BME280;3286;49.858;8.768;2023-08-01T11:10:06;97795.34;;;23.87;41.91
6506;BME280;3286;49.858;8.768;2023-08-01T11:12:34;97803.94;;;23.17;42.80
6506;BME280;3286;49.858;8.768;2023-08-01T11:15:02;97795.59;;;23.96;41.81
6506;BME280;3286;49.858;8.768;2023-08-01T11:17:30;97800.34;;;24.40;39.25
6506;BME280;3286;49.858;8.768;2023-08-01T11:20:02;97791.88;;;25.18;40.17
6506;BME280;3286;49.858;8.768;2023-08-01T11:22:30;97791.50;;;24.24;40.61
6506;BME280;3286;49.858;8.768;2023-08-01T11:24:57;97792.50;;;25.05;39.89
6506;BME280;3286;49.858;8.768;2023-08-01T11:27:24;97797.53;;;25.22;39.05
6506;BME280;3286;49.858;8.768;2023-08-01T11:29:52;97793.06;;;25.41;38.81
6506;BME280;3286;49.858;8.768;2023-08-01T11:32:19;97796.34;;;24.98;40.26
6506;BME280;3286;49.858;8.768;2023-08-01T11:34:47;97805.06;;;24.80;40.72
6506;BME280;3286;49.858;8.768;2023-08-01T11:37:20;97806.13;;;23.40;42.02
6506;BME280;3286;49.858;8.768;2023-08-01T11:39:47;97805.47;;;22.71;42.28
6506;BME280;3286;49.858;8.768;2023-08-01T11:42:15;97813.63;;;22.43;44.46
6506;BME280;3286;49.858;8.768;2023-08-01T11:44:42;97812.53;;;22.34;43.59
6506;BME280;3286;49.858;8.768;2023-08-01T11:47:13;97819.13;;;22.54;43.22
6506;BME280;3286;49.858;8.768;2023-08-01T11:49:45;97812.56;;;23.13;43.65
6506;BME280;3286;49.858;8.768;2023-08-01T11:52:23;97836.28;;;23.22;41.37
6506;BME280;3286;49.858;8.768;2023-08-01T11:54:50;97834.56;;;22.31;42.40
6506;BME280;3286;49.858;8.768;2023-08-01T11:57:17;97827.44;;;23.42;41.02
6506;BME280;3286;49.858;8.768;2023-08-01T11:59:47;97828.78;;;24.07;42.65
6506;BME280;3286;49.858;8.768;2023-08-01T12:02:20;97831.75;;;23.53;40.00
6506;BME280;3286;49.858;8.768;2023-08-01T12:04:47;97827.19;;;22.54;40.69
6506;BME280;3286;49.858;8.768;2023-08-01T12:07:14;97835.25;;;23.38;40.72
6506;BME280;3286;49.858;8.768;2023-08-01T12:09:43;97833.91;;;23.36;41.34
6506;BME280;3286;49.858;8.768;2023-08-01T12:12:11;97821.53;;;23.76;40.37
6506;BME280;3286;49.858;8.768;2023-08-01T12:14:40;97826.28;;;24.36;39.22
6506;BME280;3286;49.858;8.768;2023-08-01T12:17:07;97826.47;;;24.60;40.53
6506;BME280;3286;49.858;8.768;2023-08-01T12:19:34;97828.63;;;24.58;38.87
6506;BME280;3286;49.858;8.768;2023-08-01T12:22:00;97829.50;;;24.49;39.27
6506;BME280;3286;49.858;8.768;2023-08-01T12:24:27;97821.59;;;22.66;42.18
6506;BME280;3286;49.858;8.768;2023-08-01T12:26:55;97832.81;;;23.99;40.25
6506;BME280;3286;49.858;8.768;2023-08-01T12:29:22;97822.81;;;24.20;39.12
6506;BME280;3286;49.858;8.768;2023-08-01T12:31:48;97824.44;;;24.97;37.30
6506;BME280;3286;49.858;8.768;2023-08-01T12:34:15;97819.72;;;25.19;35.59
6506;BME280;3286;49.858;8.768;2023-08-01T12:36:41;97822.31;;;23.82;37.07
6506;BME280;3286;49.858;8.768;2023-08-01T12:39:09;97828.06;;;24.72;37.91
6506;BME280;3286;49.858;8.768;2023-08-01T12:41:36;97812.88;;;25.31;37.37
6506;BME280;3286;49.858;8.768;2023-08-01T12:44:05;97818.03;;;23.55;39.62
6506;BME280;3286;49.858;8.768;2023-08-01T12:46:32;97827.69;;;23.97;38.84
6506;BME280;3286;49.858;8.768;2023-08-01T12:48:58;97819.38;;;25.25;37.98
6506;BME280;3286;49.858;8.768;2023-08-01T12:51:25;97836.09;;;24.87;37.67
6506;BME280;3286;49.858;8.768;2023-08-01T12:53:52;97837.88;;;24.42;35.16
6506;BME280;3286;49.858;8.768;2023-08-01T12:56:18;97822.03;;;23.83;36.60
6506;BME280;3286;49.858;8.768;2023-08-01T12:58:45;97828.91;;;24.57;37.57
6506;BME280;3286;49.858;8.768;2023-08-01T13:01:13;97841.34;;;24.53;36.02
6506;BME280;3286;49.858;8.768;2023-08-01T13:03:39;97831.13;;;24.39;36.15
6506;BME280;3286;49.858;8.768;2023-08-01T13:06:06;97842.53;;;23.84;36.36
6506;BME280;3286;49.858;8.768;2023-08-01T13:08:33;97845.78;;;23.76;37.20
6506;BME280;3286;49.858;8.768;2023-08-01T13:10:59;97830.38;;;24.18;36.47
6506;BME280;3286;49.858;8.768;2023-08-01T13:13:27;97831.50;;;24.83;35.32
6506;BME280;3286;49.858;8.768;2023-08-01T13:15:56;97826.22;;;24.57;35.84
6506;BME280;3286;49.858;8.768;2023-08-01T13:18:24;97833.41;;;24.87;34.80
6506;BME280;3286;49.858;8.768;2023-08-01T13:20:50;97838.50;;;23.61;36.97
6506;BME280;3286;49.858;8.768;2023-08-01T13:23:17;97839.13;;;24.65;35.65